TAF PAYA
AMD PAYA 280546Z 2806/2906 VRB03KT 6SM -SHSN BR SCT025 BKN050 TEMPO 2806/2810 1SM -SN BR BKN015 FM281000 VRB03KT 6SM -SHSN FEW007 BKN035 TEMPO 2810/2814 1SM -SN BR BKN015 AMD LTD TO CLD VIS AND WIND=
METAR PAYA
WC PAYA
WS PAYA
WV PAYA